LIRNLIBD

Guest
Details From LIRN - Naples Capodichino
To LIBD - Bari Palese Macchie
Flight Number -
Tags Routegen Generated
Created
Modified
Stats Distance 112 nm / 208 km
Max Altitude 300 ft / 91 m
Waypoints 7
Social Downloads 2
Likes 0
Share VATSIM

Download

Looking for another format? Having issues loading an existing format? Contact us
Advertisement - Login to hide

Notes

Departing runway 5 LIRN. Arriving runway 6 LIBD.

Route

LIRN +40.93_+014.39 +40.94_+014.46 +41.01_+015.31 +41.11_+016.58 +41.11_+016.66 LIBD

ID Type Via Altitude Latitude Longitude Leg Dist Tot Dist Heading (true) Name
O LIRN APT - 0 ft / 0 m 40.89228˚ 14.30402˚ - 0 nm - -
+40.93_+014.39 LATLON - 300 ft / 91 m 40.93055˚ 14.38530˚ 4 nm 4 nm 58° / 58° -
+40.94_+014.46 LATLON - 300 ft / 91 m 40.94251˚ 14.46028˚ 3 nm 7 nm 78° / 78° -
+41.01_+015.31 LATLON - 300 ft / 91 m 41.01285˚ 15.31251˚ 38 nm 46 nm 83° / 84° -
+41.11_+016.58 LATLON - 300 ft / 91 m 41.10852˚ 16.58013˚ 57 nm 104 nm 84° / 85° -
+41.11_+016.66 LATLON - 300 ft / 91 m 41.10914˚ 16.65697˚ 3 nm 107 nm 89° / 89° -
O LIBD APT - 0 ft / 0 m 41.13463˚ 16.74687˚ 4 nm 112 nm 69° / 69° -

Altitude Profile

Advertisement - Login to hide

LIRN

Details ICAO LIRN (NAP)
Name Naples Capodichino
Region Italy
Timezone Europe/Rome (UTC+1.0)
Stats Elevation 294 ft / 90 m (AMSL)
Location 40.886032° 14.290783°
Runways 1
Magnetic Variation 3.309° E

METAR

LIRN 181450Z VRB02KT 9999 FEW040 09/M04 Q1021 NOSIG

Decode

TAF

TAF LIRN 181100Z 1812/1912 05010KT CAVOK

Decode

Departure Runways

ID Width Length Bearing (true) Bearing (mag) Surface Threshold Offset Overrun Length
06 148 ft / 45 m 8,612 ft / 2,625 m 58.03° 54.72° Asphalt 1,309 ft / 399 m 0 ft / 0 m
24 148 ft / 45 m 8,612 ft / 2,625 m 238.05° 234.74° Asphalt 624 ft / 190 m 0 ft / 0 m

LIBD

Details ICAO LIBD (BRI)
Name Bari Palese Macchie
Region Italy
Timezone Europe/Rome (UTC+1.0)
Stats Elevation 177 ft / 54 m (AMSL)
Location 41.137865° 16.758318°
Runways 1
Magnetic Variation 3.738° E

METAR

LIBD 181450Z 31014KT 9999 DZ VCTS SCT025CB 06/01 Q1019 REGR RERA R25/650393

Decode

TAF

TAF AMD LIBD 181305Z 1813/1912 31013KT 9999 SCT030 TEMPO 1813/1815 TSRA

Decode

Destination Runways

ID Width Length Bearing (true) Bearing (mag) Surface Threshold Offset Overrun Length
07 148 ft / 45 m 9,262 ft / 2,823 m 69.39° 65.65° Asphalt 1,257 ft / 383 m 0 ft / 0 m
25 148 ft / 45 m 9,262 ft / 2,823 m 249.42° 245.68° Asphalt 0 ft / 0 m 194 ft / 59 m

Approach Navaids

Runway Type Ident Frequency Range Bearing (true) Bearing (mag) Slope Elevation
07 Localiser BAP 111.35 MHz 18 nm / 33 km 69.25° 65.51° - 177 ft / 54 m (AMSL)
07 Glidescope BAP 111.35 MHz 10 nm / 19 km 69.25° 65.51° 3.32° 177 ft / 54 m (AMSL)
07 DME BAP 111.35 MHz 18 nm / 33 km - - - 183 ft / 56 m (AMSL)

Popular Alternatives